createdAt,value
2023-04-20T00:00:27.560Z,10.20
2023-04-20T00:02:55.595Z,10.20
2023-04-20T00:05:23.871Z,10.20
2023-04-20T00:07:53.793Z,10.20
2023-04-20T00:10:21.547Z,10.20
2023-04-20T00:12:49.271Z,10.20
2023-04-20T00:15:19.889Z,10.20
2023-04-20T00:17:48.346Z,10.00
2023-04-20T00:20:16.228Z,10.20
2023-04-20T00:22:43.978Z,10.10
2023-04-20T00:25:11.763Z,10.10
2023-04-20T00:27:39.513Z,10.10
2023-04-20T00:30:10.334Z,10.10
2023-04-20T00:32:38.152Z,10.10
2023-04-20T00:35:07.849Z,10.10
2023-04-20T00:37:35.975Z,10.20
2023-04-20T00:40:05.481Z,10.20
2023-04-20T00:42:34.129Z,10.10
2023-04-20T00:45:01.874Z,10.00
2023-04-20T00:47:29.617Z,10.00
2023-04-20T00:49:57.669Z,9.90
2023-04-20T00:52:25.362Z,9.90
2023-04-20T00:54:53.217Z,9.90
2023-04-20T00:57:23.224Z,9.90
2023-04-20T00:59:51.300Z,10.00
2023-04-20T01:02:19.132Z,10.10
2023-04-20T01:04:47.487Z,10.20
2023-04-20T01:07:15.236Z,10.10
2023-04-20T01:09:43.034Z,10.10
2023-04-20T01:12:11.144Z,9.90
2023-04-20T01:14:38.898Z,9.90
2023-04-20T01:17:07.278Z,9.90
2023-04-20T01:19:35.053Z,9.90
2023-04-20T01:22:02.815Z,9.90
2023-04-20T01:27:17.719Z,9.90
2023-04-20T01:29:45.906Z,9.80
2023-04-20T01:32:13.813Z,9.90
2023-04-20T01:34:41.559Z,9.90
2023-04-20T01:37:09.581Z,9.70
2023-04-20T01:39:38.220Z,10.30
2023-04-20T01:42:06.801Z,9.80
2023-04-20T01:44:35.002Z,9.90
2023-04-20T01:47:02.907Z,9.80
2023-04-20T01:49:31.068Z,9.90
2023-04-20T01:51:58.767Z,9.70
2023-04-20T01:54:26.551Z,9.80
2023-04-20T01:56:54.618Z,9.70
2023-04-20T01:59:22.290Z,9.70
2023-04-20T02:01:50.163Z,9.60
2023-04-20T02:04:18.298Z,9.60
2023-04-20T02:06:46.188Z,9.60
2023-04-20T02:09:14.251Z,9.60
2023-04-20T02:11:42.037Z,9.70
2023-04-20T02:17:03.695Z,9.40
2023-04-20T02:19:31.504Z,9.50
2023-04-20T02:21:59.261Z,9.50
2023-04-20T02:24:26.932Z,8.10
2023-04-20T02:26:54.826Z,9.30
2023-04-20T02:29:22.545Z,9.10
2023-04-20T02:31:50.308Z,9.10
2023-04-20T02:34:18.062Z,9.20
2023-04-20T02:36:46.458Z,9.20
2023-04-20T02:39:14.475Z,9.10
2023-04-20T02:41:42.177Z,9.10
2023-04-20T02:44:09.895Z,9.00
2023-04-20T02:46:37.801Z,9.00
2023-04-20T02:49:05.590Z,9.00
2023-04-20T02:51:33.328Z,9.00
2023-04-20T02:54:01.057Z,9.10
2023-04-20T02:56:28.841Z,9.00
2023-04-20T02:58:56.616Z,9.00
2023-04-20T03:01:24.317Z,9.00
2023-04-20T03:03:52.473Z,9.10
2023-04-20T03:06:20.993Z,8.90
2023-04-20T03:08:48.743Z,8.90
2023-04-20T03:11:16.528Z,8.70
2023-04-20T03:13:44.216Z,8.50
2023-04-20T03:16:12.115Z,8.70
2023-04-20T03:18:39.918Z,8.70
2023-04-20T03:21:07.800Z,8.70
2023-04-20T03:23:35.524Z,8.80
2023-04-20T03:26:03.609Z,8.70
2023-04-20T03:28:31.301Z,8.70
2023-04-20T03:31:00.389Z,8.70
2023-04-20T03:33:28.210Z,8.70
2023-04-20T03:35:55.995Z,8.60
2023-04-20T03:38:23.761Z,8.80
2023-04-20T03:40:51.479Z,8.50
2023-04-20T03:43:19.242Z,8.50
2023-04-20T03:45:47.045Z,8.50
2023-04-20T03:48:14.849Z,8.30
2023-04-20T03:50:42.667Z,8.90
2023-04-20T03:53:10.461Z,8.50
2023-04-20T03:55:38.165Z,8.40
2023-04-20T03:58:06.702Z,8.40
2023-04-20T04:00:34.404Z,8.30
2023-04-20T04:03:02.428Z,8.50
2023-04-20T04:05:31.408Z,8.60
2023-04-20T04:07:59.160Z,8.40
2023-04-20T04:10:27.166Z,8.40
2023-04-20T04:12:54.964Z,8.50
2023-04-20T04:15:22.699Z,8.40
2023-04-20T04:20:37.846Z,8.40
2023-04-20T04:23:06.516Z,8.10
2023-04-20T04:25:36.813Z,8.40
2023-04-20T04:28:05.516Z,8.20
2023-04-20T04:30:34.293Z,8.50
2023-04-20T04:33:04.231Z,8.50
2023-04-20T04:35:32.665Z,8.40
2023-04-20T04:38:00.569Z,8.50
2023-04-20T04:40:28.398Z,8.60
2023-04-20T04:42:56.134Z,8.60
2023-04-20T04:48:12.154Z,8.60
2023-04-20T04:50:40.339Z,8.70
2023-04-20T04:53:08.309Z,8.70
2023-04-20T04:55:36.042Z,8.60
2023-04-20T04:58:03.829Z,8.60
2023-04-20T05:00:31.781Z,8.40
2023-04-20T05:02:59.955Z,8.40
2023-04-20T05:05:28.139Z,8.30
2023-04-20T05:07:56.104Z,8.30
2023-04-20T05:10:23.909Z,8.40
2023-04-20T05:15:38.606Z,8.30
2023-04-20T05:18:06.645Z,8.30
2023-04-20T05:20:34.717Z,8.40
2023-04-20T05:25:54.787Z,8.30
2023-04-20T05:28:22.570Z,8.40
2023-04-20T05:30:50.491Z,8.20
2023-04-20T05:36:10.406Z,8.20
2023-04-20T05:38:38.144Z,8.20
2023-04-20T05:41:06.361Z,8.20
2023-04-20T05:43:34.164Z,8.30
2023-04-20T05:46:02.405Z,8.30
2023-04-20T05:48:30.644Z,8.30
2023-04-20T05:50:58.455Z,8.30
2023-04-20T05:53:26.259Z,8.40
2023-04-20T05:58:22.013Z,8.50
2023-04-20T06:00:49.901Z,8.40
2023-04-20T06:03:18.401Z,8.40
2023-04-20T06:05:46.373Z,8.40
2023-04-20T06:08:14.094Z,8.50
2023-04-20T06:10:41.890Z,8.30
2023-04-20T06:13:09.629Z,8.30
2023-04-20T06:15:37.466Z,8.40
2023-04-20T06:18:05.773Z,8.40
2023-04-20T06:20:33.628Z,8.40
2023-04-20T06:23:01.388Z,8.50
2023-04-20T06:25:29.404Z,8.50
2023-04-20T06:27:57.212Z,8.60
2023-04-20T06:30:25.276Z,8.40
2023-04-20T06:32:53.072Z,8.40
2023-04-20T06:35:22.762Z,8.40
2023-04-20T06:37:50.588Z,8.40
2023-04-20T06:40:18.963Z,8.40
2023-04-20T06:42:46.791Z,8.50
2023-04-20T06:45:14.601Z,8.40
2023-04-20T06:47:42.419Z,8.40
2023-04-20T06:50:11.450Z,8.20
2023-04-20T06:52:39.923Z,8.30
2023-04-20T06:55:09.286Z,8.30
2023-04-20T06:57:37.830Z,8.40
2023-04-20T07:02:52.050Z,8.20
2023-04-20T07:05:20.136Z,8.30
2023-04-20T07:07:47.900Z,8.40
2023-04-20T07:10:16.242Z,8.20
2023-04-20T07:12:44.662Z,8.40
2023-04-20T07:15:12.699Z,8.40
2023-04-20T07:17:40.553Z,8.10
2023-04-20T07:20:10.410Z,8.30
2023-04-20T07:25:26.708Z,8.40
2023-04-20T07:27:54.615Z,8.50
2023-04-20T07:30:22.550Z,8.60
2023-04-20T07:32:50.442Z,8.70
2023-04-20T07:35:18.433Z,8.30
2023-04-20T07:37:46.913Z,8.70
2023-04-20T07:40:16.226Z,8.60
2023-04-20T07:42:44.126Z,8.60
2023-04-20T07:45:13.449Z,8.50
2023-04-20T07:47:43.415Z,8.40
2023-04-20T07:50:11.853Z,8.50
2023-04-20T07:52:39.862Z,8.50
2023-04-20T07:55:11.270Z,8.40
2023-04-20T07:57:39.950Z,8.40
2023-04-20T08:00:11.989Z,8.80
2023-04-20T08:02:40.080Z,8.50
2023-04-20T08:05:10.720Z,8.50
2023-04-20T08:07:39.106Z,8.60
2023-04-20T08:10:09.414Z,8.60
2023-04-20T08:12:38.565Z,8.60
2023-04-20T08:15:09.260Z,8.60
2023-04-20T08:20:25.716Z,8.50
2023-04-20T08:22:53.664Z,8.50
2023-04-20T08:25:21.577Z,8.50
2023-04-20T08:30:36.227Z,8.40
2023-04-20T08:33:04.296Z,8.60
2023-04-20T08:35:32.181Z,8.60
2023-04-20T08:38:00.170Z,8.60
2023-04-20T08:40:29.755Z,8.70
2023-04-20T08:42:59.101Z,8.70
2023-04-20T08:45:27.221Z,8.80
2023-04-20T08:47:55.530Z,8.60
2023-04-20T08:50:23.412Z,8.70
2023-04-20T08:52:52.156Z,8.70
2023-04-20T08:55:20.447Z,8.70
2023-04-20T08:57:49.875Z,8.80
2023-04-20T09:00:19.144Z,9.10
2023-04-20T09:02:51.263Z,9.20
2023-04-20T09:05:27.802Z,9.30
2023-04-20T09:07:57.966Z,9.40
2023-04-20T09:10:38.060Z,9.50
2023-04-20T09:13:06.737Z,9.40
2023-04-20T09:15:34.828Z,9.40
2023-04-20T09:18:13.936Z,9.30
2023-04-20T09:20:41.749Z,9.30
2023-04-20T09:23:13.640Z,9.50
2023-04-20T09:25:42.817Z,9.50
2023-04-20T09:28:10.829Z,9.50
2023-04-20T09:30:39.446Z,9.60
2023-04-20T09:33:10.009Z,9.50
2023-04-20T09:35:39.238Z,9.60
2023-04-20T09:38:07.316Z,9.50
2023-04-20T09:40:35.696Z,9.50
2023-04-20T09:43:09.534Z,9.50
2023-04-20T09:45:39.359Z,9.90
2023-04-20T09:48:08.743Z,11.20
2023-04-20T09:50:48.449Z,11.80
2023-04-20T09:53:18.389Z,11.40
2023-04-20T09:55:48.108Z,11.10
2023-04-20T09:58:19.202Z,10.80
2023-04-20T10:00:47.332Z,10.50
2023-04-20T10:03:18.088Z,10.40
2023-04-20T10:05:46.012Z,10.40
2023-04-20T10:08:13.802Z,10.50
2023-04-20T10:10:45.897Z,10.40
2023-04-20T10:13:14.229Z,10.50
2023-04-20T10:15:43.115Z,10.50
2023-04-20T10:21:09.811Z,10.30
2023-04-20T10:23:48.292Z,10.30
2023-04-20T10:26:16.059Z,10.30
2023-04-20T10:28:44.301Z,10.20
2023-04-20T10:31:14.715Z,10.20
2023-04-20T10:33:52.716Z,10.20
2023-04-20T10:36:28.405Z,10.20
2023-04-20T10:38:56.793Z,10.10
2023-04-20T10:41:24.946Z,10.20
2023-04-20T10:43:52.730Z,10.20
2023-04-20T10:46:22.178Z,10.30
2023-04-20T10:48:54.978Z,10.30
2023-04-20T10:51:23.807Z,10.50
2023-04-20T10:54:03.872Z,10.80
2023-04-20T10:56:39.216Z,10.80
2023-04-20T10:59:08.223Z,10.80
2023-04-20T11:04:31.711Z,11.20
2023-04-20T11:07:07.170Z,11.20
2023-04-20T11:09:37.569Z,11.10
2023-04-20T11:12:07.390Z,11.20
2023-04-20T11:14:37.611Z,11.20
2023-04-20T11:17:06.053Z,11.20
2023-04-20T11:19:36.325Z,11.20
2023-04-20T11:22:05.901Z,11.30
2023-04-20T11:24:36.703Z,11.60
2023-04-20T11:27:05.143Z,11.20
2023-04-20T11:29:35.129Z,11.30
2023-04-20T11:32:05.827Z,11.00
2023-04-20T11:34:35.362Z,10.90
2023-04-20T11:37:05.936Z,11.00
2023-04-20T11:39:33.963Z,11.20
2023-04-20T11:42:01.838Z,11.30
2023-04-20T11:44:30.111Z,11.40
2023-04-20T11:46:59.078Z,11.40
2023-04-20T11:49:28.345Z,11.30
2023-04-20T11:51:56.513Z,11.30
2023-04-20T11:54:24.745Z,11.20
2023-04-20T11:56:52.578Z,11.10
2023-04-20T11:59:21.008Z,11.10
2023-04-20T12:01:49.447Z,11.10
2023-04-20T12:04:17.633Z,11.10
2023-04-20T12:06:46.744Z,11.30
2023-04-20T12:09:14.667Z,11.20
2023-04-20T12:11:42.480Z,11.30
2023-04-20T12:14:10.416Z,11.30
2023-04-20T12:16:38.263Z,11.30
2023-04-20T12:19:06.246Z,11.20
2023-04-20T12:21:34.152Z,11.20
2023-04-20T12:26:49.531Z,11.10
2023-04-20T12:29:17.603Z,11.30
2023-04-20T12:31:45.788Z,11.40
2023-04-20T12:34:13.676Z,11.60
2023-04-20T12:36:41.498Z,11.60
2023-04-20T12:39:11.215Z,11.30
2023-04-20T12:41:40.682Z,11.70
2023-04-20T12:44:11.330Z,11.80
2023-04-20T12:46:39.530Z,11.70
2023-04-20T12:49:07.413Z,11.80
2023-04-20T12:51:35.874Z,11.80
2023-04-20T12:54:03.855Z,11.90
2023-04-20T12:56:31.726Z,11.70
2023-04-20T12:58:59.603Z,11.70
2023-04-20T13:01:27.782Z,11.80
2023-04-20T13:03:56.463Z,11.70
2023-04-20T13:06:24.590Z,11.70
2023-04-20T13:08:52.544Z,11.70
2023-04-20T13:11:20.788Z,11.60
2023-04-20T13:13:48.642Z,11.70
2023-04-20T13:16:16.656Z,11.90
2023-04-20T13:18:44.763Z,12.20
2023-04-20T13:21:12.619Z,12.50
2023-04-20T13:23:40.599Z,12.50
2023-04-20T13:26:08.952Z,12.60
2023-04-20T13:28:37.444Z,12.90
2023-04-20T13:31:05.686Z,13.10
2023-04-20T13:33:34.117Z,13.20
2023-04-20T13:36:02.015Z,13.60
2023-04-20T13:38:30.335Z,13.70
2023-04-20T13:40:58.227Z,13.80
2023-04-20T13:43:26.593Z,13.70
2023-04-20T13:45:54.776Z,13.50
2023-04-20T13:48:23.044Z,13.20
2023-04-20T13:50:53.421Z,12.90
2023-04-20T13:53:21.424Z,12.80
2023-04-20T13:55:49.541Z,12.90
2023-04-20T13:58:17.515Z,12.90
2023-04-20T14:03:31.795Z,12.80
2023-04-20T14:05:59.738Z,12.60
2023-04-20T14:08:27.886Z,12.80
2023-04-20T14:10:55.867Z,12.90
2023-04-20T14:13:24.056Z,13.00
2023-04-20T14:15:52.727Z,12.90
2023-04-20T14:18:20.833Z,12.90
2023-04-20T14:20:51.647Z,12.80
2023-04-20T14:26:06.725Z,12.60
2023-04-20T14:28:35.147Z,12.60
2023-04-20T14:33:53.085Z,12.70
2023-04-20T14:36:21.211Z,12.60
2023-04-20T14:38:48.998Z,12.90
2023-04-20T14:41:16.953Z,12.70
2023-04-20T14:43:44.919Z,13.20
2023-04-20T14:46:13.173Z,13.20
2023-04-20T14:48:40.983Z,13.30
2023-04-20T14:51:08.892Z,13.50
2023-04-20T14:53:37.074Z,13.50
2023-04-20T14:56:05.840Z,13.50
2023-04-20T14:58:35.407Z,14.10
2023-04-20T15:01:05.456Z,14.90
2023-04-20T15:03:33.765Z,15.10
2023-04-20T15:06:02.990Z,14.80
2023-04-20T15:08:31.585Z,15.10
2023-04-20T15:10:59.333Z,15.60
2023-04-20T15:13:27.336Z,15.50
2023-04-20T15:15:55.569Z,15.60
2023-04-20T15:18:23.452Z,15.30
2023-04-20T15:20:51.963Z,14.90
2023-04-20T15:23:19.927Z,14.80
2023-04-20T15:28:34.668Z,14.00
2023-04-20T15:33:54.365Z,13.60
2023-04-20T15:36:22.169Z,13.40
2023-04-20T15:38:51.644Z,13.20
2023-04-20T15:41:20.180Z,13.10
2023-04-20T15:43:48.043Z,12.90
2023-04-20T15:46:22.564Z,12.70
2023-04-20T15:48:50.476Z,12.80
2023-04-20T15:51:19.489Z,12.80
2023-04-20T15:53:49.858Z,12.70
2023-04-20T15:56:21.205Z,12.70
2023-04-20T15:58:49.373Z,12.70
2023-04-20T16:01:17.979Z,12.70
2023-04-20T16:03:46.666Z,12.60
2023-04-20T16:06:14.711Z,12.60
2023-04-20T16:08:42.532Z,12.50
2023-04-20T16:11:10.490Z,12.60
2023-04-20T16:13:38.281Z,12.40
2023-04-20T16:16:07.886Z,12.40
2023-04-20T16:18:35.710Z,12.40
2023-04-20T16:21:03.671Z,12.30
2023-04-20T16:23:31.741Z,12.20
2023-04-20T16:25:59.880Z,12.30
2023-04-20T16:28:27.704Z,12.20
2023-04-20T16:30:55.626Z,12.20
2023-04-20T16:33:24.012Z,12.10
2023-04-20T16:35:53.596Z,12.10
2023-04-20T16:38:21.967Z,12.00
2023-04-20T16:43:37.184Z,12.00
2023-04-20T16:46:05.078Z,12.00
2023-04-20T16:48:34.959Z,12.00
2023-04-20T16:51:02.868Z,11.90
2023-04-20T16:53:30.715Z,11.90
2023-04-20T16:55:59.173Z,11.90
2023-04-20T16:58:27.449Z,11.80
2023-04-20T17:00:55.562Z,11.80
2023-04-20T17:03:23.997Z,11.90
2023-04-20T17:05:51.909Z,11.80
2023-04-20T17:08:20.491Z,11.90
2023-04-20T17:10:48.392Z,11.90
2023-04-20T17:13:17.611Z,11.90
2023-04-20T17:15:45.710Z,11.80
2023-04-20T17:18:14.083Z,11.60
2023-04-20T17:20:42.178Z,11.80
2023-04-20T17:23:10.061Z,11.70
2023-04-20T17:25:38.117Z,11.80
2023-04-20T17:28:06.470Z,12.30
2023-04-20T17:30:34.373Z,11.80
2023-04-20T17:35:51.464Z,11.70
2023-04-20T17:38:19.310Z,11.70
2023-04-20T17:40:50.463Z,11.50
2023-04-20T17:43:20.818Z,11.50
2023-04-20T17:45:50.055Z,11.60
2023-04-20T17:48:20.538Z,11.60
2023-04-20T17:50:49.531Z,11.70
2023-04-20T17:53:17.462Z,11.60
2023-04-20T17:55:45.339Z,11.60
2023-04-20T17:58:16.807Z,11.60
2023-04-20T18:00:44.694Z,11.50
2023-04-20T18:03:13.951Z,11.50
2023-04-20T18:05:42.201Z,11.50
2023-04-20T18:08:10.511Z,11.40
2023-04-20T18:10:38.619Z,11.30
2023-04-20T18:13:07.214Z,11.30
2023-04-20T18:15:35.123Z,11.30
2023-04-20T18:18:03.546Z,11.30
2023-04-20T18:20:32.591Z,11.00
2023-04-20T18:23:02.377Z,11.30
2023-04-20T18:25:30.276Z,11.30
2023-04-20T18:27:58.258Z,11.40
2023-04-20T18:30:26.211Z,11.30
2023-04-20T18:32:56.959Z,11.30
2023-04-20T18:35:25.048Z,11.20
2023-04-20T18:37:54.481Z,11.30
2023-04-20T18:40:22.855Z,11.20
2023-04-20T18:42:51.144Z,11.20
2023-04-20T18:45:20.800Z,11.20
2023-04-20T18:47:48.870Z,11.20
2023-04-20T18:50:16.956Z,11.10
2023-04-20T18:52:44.779Z,11.10
2023-04-20T18:55:12.680Z,11.10
2023-04-20T18:57:40.728Z,11.10
2023-04-20T19:00:13.378Z,10.70
2023-04-20T19:02:41.514Z,11.20
2023-04-20T19:05:09.754Z,11.20
2023-04-20T19:07:37.921Z,11.10
2023-04-20T19:10:08.661Z,11.10
2023-04-20T19:12:37.954Z,11.00
2023-04-20T19:15:09.075Z,11.00
2023-04-20T19:17:37.283Z,10.80
2023-04-20T19:20:07.558Z,11.00
2023-04-20T19:22:36.784Z,11.00
2023-04-20T19:25:10.065Z,10.90
2023-04-20T19:27:38.004Z,11.00
2023-04-20T19:30:08.811Z,10.90
2023-04-20T19:32:36.966Z,10.90
2023-04-20T19:35:06.029Z,11.00
2023-04-20T19:37:34.174Z,11.00
2023-04-20T19:40:05.385Z,11.00
2023-04-20T19:42:33.557Z,10.90
2023-04-20T19:45:01.633Z,11.00
2023-04-20T19:47:29.768Z,11.00
2023-04-20T19:49:57.878Z,11.00
2023-04-20T19:52:26.173Z,11.00
2023-04-20T19:54:54.309Z,11.00
2023-04-20T19:57:22.298Z,11.00
2023-04-20T19:59:50.309Z,11.00
2023-04-20T20:02:18.311Z,10.90
2023-04-20T20:04:46.464Z,10.90
2023-04-20T20:07:14.814Z,11.00
2023-04-20T20:09:44.133Z,11.30
2023-04-20T20:12:12.285Z,10.80
2023-04-20T20:14:40.531Z,10.90
2023-04-20T20:17:08.488Z,10.80
2023-04-20T20:19:36.364Z,10.90
2023-04-20T20:22:06.840Z,10.30
2023-04-20T20:24:34.906Z,10.80
2023-04-20T20:27:04.194Z,10.90
2023-04-20T20:29:32.309Z,10.90
2023-04-20T20:32:00.190Z,10.90
2023-04-20T20:34:28.072Z,10.90
2023-04-20T20:36:56.016Z,10.90
2023-04-20T20:39:23.818Z,10.90
2023-04-20T20:41:51.824Z,10.40
2023-04-20T20:44:20.357Z,10.80
2023-04-20T20:46:48.470Z,10.90
2023-04-20T20:49:16.489Z,10.90
2023-04-20T20:51:44.443Z,10.90
2023-04-20T20:54:12.279Z,10.80
2023-04-20T20:56:40.213Z,10.80
2023-04-20T20:59:09.353Z,10.70
2023-04-20T21:01:37.208Z,10.70
2023-04-20T21:04:05.253Z,11.20
2023-04-20T21:06:33.386Z,7.80
2023-04-20T21:09:01.324Z,10.60
2023-04-20T21:11:29.176Z,10.50
2023-04-20T21:14:02.362Z,10.60
2023-04-20T21:16:30.152Z,10.60
2023-04-20T21:18:58.145Z,10.50
2023-04-20T21:21:26.740Z,10.50
2023-04-20T21:23:57.919Z,10.70
2023-04-20T21:26:25.800Z,10.50
2023-04-20T21:28:53.991Z,10.50
2023-04-20T21:31:21.889Z,10.50
2023-04-20T21:33:49.987Z,10.60
2023-04-20T21:36:17.846Z,10.20
2023-04-20T21:38:45.726Z,10.20
2023-04-20T21:41:13.515Z,10.60
2023-04-20T21:43:43.357Z,10.50
2023-04-20T21:46:17.803Z,10.50
2023-04-20T21:48:45.747Z,10.60
2023-04-20T21:51:16.242Z,10.50
2023-04-20T21:53:44.348Z,10.50
2023-04-20T21:56:14.162Z,10.40
2023-04-20T21:58:41.909Z,10.40
2023-04-20T22:01:09.789Z,10.40
2023-04-20T22:03:38.220Z,10.30
2023-04-20T22:06:07.180Z,10.40
2023-04-20T22:08:38.951Z,10.40
2023-04-20T22:11:07.481Z,10.30
2023-04-20T22:13:35.902Z,10.30
2023-04-20T22:16:05.354Z,10.40
2023-04-20T22:18:33.263Z,10.30
2023-04-20T22:21:01.483Z,10.30
2023-04-20T22:23:29.443Z,10.50
2023-04-20T22:25:57.301Z,10.40
2023-04-20T22:28:25.156Z,10.40
2023-04-20T22:30:52.914Z,10.40
2023-04-20T22:33:20.692Z,10.50
2023-04-20T22:35:48.441Z,10.40
2023-04-20T22:38:16.237Z,10.40
2023-04-20T22:40:43.974Z,10.50
2023-04-20T22:43:11.917Z,10.50
2023-04-20T22:45:40.655Z,10.40
2023-04-20T22:48:08.713Z,10.50
2023-04-20T22:50:36.567Z,10.50
2023-04-20T22:53:04.404Z,10.50
2023-04-20T22:55:32.320Z,10.50
2023-04-20T22:58:00.057Z,10.60
2023-04-20T23:00:27.962Z,10.50
2023-04-20T23:02:55.842Z,10.50
2023-04-20T23:05:24.270Z,10.50
2023-04-20T23:07:53.288Z,10.40
2023-04-20T23:10:21.586Z,10.50
2023-04-20T23:12:50.307Z,10.50
2023-04-20T23:15:18.254Z,10.50
2023-04-20T23:17:46.082Z,10.50
2023-04-20T23:20:14.598Z,10.40
2023-04-20T23:22:42.375Z,10.30
2023-04-20T23:25:11.244Z,10.20
2023-04-20T23:27:39.062Z,10.30
2023-04-20T23:32:56.732Z,10.20
2023-04-20T23:35:24.545Z,10.30
2023-04-20T23:37:54.501Z,10.30
2023-04-20T23:40:22.912Z,10.30
2023-04-20T23:42:50.690Z,10.30
2023-04-20T23:45:18.461Z,10.40
2023-04-20T23:47:46.246Z,10.40
2023-04-20T23:50:14.608Z,10.50
2023-04-20T23:52:42.337Z,10.50
2023-04-20T23:55:10.802Z,10.60
2023-04-20T23:57:38.561Z,10.60
